Quick Links (Output Below):   Max & Min Temps   /   Climate Reports   /   Zone Forecasts
River Forecasts   /   Forestry Forecasts   /   Aviation Forecasts   /   Radars   /   Features

Terminal Aerodrome Forecast (Texarkana)

Pick a Site:
Arkadelphia | El Dorado | Fayetteville | Fort Smith | Harrison | Highfill | Hot Springs | Jonesboro
Little Rock | Monticello | Mountain Home | Pine Bluff | Texarkana
 Forecast 

KTXK 080522Z 0806/0906 18010KT P6SM BKN250
      TEMPO 0812/0814 BKN015
     FM081400 18012KT P6SM SCT030
     FM081600 21014G23KT P6SM SCT040
     FM090000 19008KT P6SM SKC=


 Latest METARs (Observations) 
How to Decode METARs
06Z KTXK 080553Z AUTO 18010KT 10SM CLR 27/23 A3001 RMK AO2 SLP157
         T02670233 10311 20267 403330244 50002
         
05Z KTXK 080453Z AUTO 18009KT 10SM CLR 27/23 A3002 RMK AO2 SLP161
         T02670233
         
04Z KTXK 080353Z AUTO 19010KT 10SM CLR 27/23 A3001 RMK AO2 SLP157
         T02720228
         
03Z KTXK 080253Z AUTO 18012KT 10SM FEW120 28/23 A3000 RMK AO2 SLP154
         T02830228 53016
         
02Z KTXK 080153Z 17007KT 10SM CLR 28/23 A2998 RMK AO2 SLP146
         T02830233
         
01Z KTXK 080053Z 17006KT 10SM CLR 29/24 A2997 RMK AO2 SLP142
         T02940239
         
00Z KTXK 072353Z 19006KT 10SM CLR 31/23 A2996 RMK AO2 SLP138 T03110233
         10333 20306 55006
         
***** Today's Observations (Above) *****


23Z KTXK 072253Z 18009KT 10SM CLR 32/23 A2995 RMK AO2 SLP137
         T03220233
         
22Z KTXK 072153Z 18006KT 10SM SCT046 BKN060 32/23 A2997 RMK AO2 SLP141
         T03170233
         
21Z KTXK 072053Z 17014G19KT 10SM CLR 33/23 A2997 RMK AO2 SLP144
         T03330228 56016
         
***** Yesterday's Observations (Above) *****


Back to Main Page
http://www.srh.noaa.gov/lzk/qfcst.php

USA.gov is the U.S. government's official web portal to all federal, state and local government web resources and services.